Time;durP1;ratioP1;P1;durP2;ratioP2;P2;SDS_P1;SDS_P2;PMS_P1;PMS_P2;Temp;Humidity;BMP_temperature;BMP_pressure;BME280_temperature;BME280_humidity;BME280_pressure;Samples;Min_cycle;Max_cycle;Signal;HPM_P1;HPM_P2
2023/04/08 00:00:56;;;;;;;;;;;6.30;99.90;;;;;;5109407;28;1084;-68
2023/04/08 00:03:21;;;;;;;;;;;6.30;99.90;;;;;;5108627;28;1114;-68
2023/04/08 00:05:47;;;;;;;;;;;6.30;99.90;;;;;;5109728;28;1148;-68
2023/04/08 00:08:13;;;;;;;;;;;6.30;99.90;;;;;;5109057;28;1968;-68
2023/04/08 00:10:38;;;;;;;;;;;6.30;99.90;;;;;;5110163;28;1160;-68
2023/04/08 00:13:04;;;;;;;;;;;6.30;99.90;;;;;;5118619;27;1153;-68
2023/04/08 00:15:30;;;;;;;;;;;6.30;99.90;;;;;;5129744;27;1011;-68
2023/04/08 00:17:55;;;;;;;;;;;6.30;99.90;;;;;;5130450;27;1170;-68
2023/04/08 00:20:22;;;;;;;;;;;6.30;99.90;;;;;;5108216;28;1163;-68
2023/04/08 00:22:48;;;;;;;;;;;6.30;99.90;;;;;;5123410;27;1163;-68
2023/04/08 00:25:13;;;;;;;;;;;6.20;99.90;;;;;;5109470;28;1057;-68
2023/04/08 00:27:39;;;;;;;;;;;6.30;99.90;;;;;;5109752;28;1120;-68
2023/04/08 00:30:05;;;;;;;;;;;6.20;99.90;;;;;;5099059;27;1930;-68
2023/04/08 00:32:31;;;;;;;;;;;6.20;99.90;;;;;;5109548;28;1236;-68
2023/04/08 00:34:57;;;;;;;;;;;6.10;99.90;;;;;;5099759;27;1235;-68
2023/04/08 00:37:23;;;;;;;;;;;6.10;99.90;;;;;;5145982;27;1131;-68
2023/04/08 00:39:49;;;;;;;;;;;6.10;99.90;;;;;;5109344;28;1208;-68
2023/04/08 00:42:16;;;;;;;;;;;6.10;99.90;;;;;;5090478;28;1142;-68
2023/04/08 00:44:41;;;;;;;;;;;6.00;99.90;;;;;;5109924;28;1096;-68
2023/04/08 00:47:10;;;;;;;;;;;6.00;99.90;;;;;;5102604;28;1295;-68
2023/04/08 00:49:36;;;;;;;;;;;6.00;99.90;;;;;;5104391;28;1913;-68
2023/04/08 00:52:02;;;;;;;;;;;6.00;99.90;;;;;;5109615;28;1143;-68
2023/04/08 00:54:27;;;;;;;;;;;5.90;99.90;;;;;;5109566;28;1124;-68
2023/04/08 00:56:53;;;;;;;;;;;5.90;99.90;;;;;;5089886;28;1091;-68
2023/04/08 00:59:19;;;;;;;;;;;5.80;99.90;;;;;;5109279;28;1167;-68
2023/04/08 01:01:44;;;;;;;;;;;5.80;99.90;;;;;;5091112;28;1156;-68
2023/04/08 01:04:22;;;;;;;;;;;5.80;99.90;;;;;;5107630;28;1172;-68
2023/04/08 01:06:48;;;;;;;;;;;5.80;99.90;;;;;;5109052;28;1270;-68
2023/04/08 01:09:17;;;;;;;;;;;5.70;99.90;;;;;;5090671;28;1984;-68
2023/04/08 01:11:43;;;;;;;;;;;5.70;99.90;;;;;;5108318;28;1080;-68
2023/04/08 01:14:10;;;;;;;;;;;5.70;99.90;;;;;;5078776;28;2329;-68
2023/04/08 01:16:38;;;;;;;;;;;5.90;99.90;;;;;;5109466;28;1162;-68
2023/04/08 01:19:07;;;;;;;;;;;5.60;99.90;;;;;;5108155;28;1191;-68
2023/04/08 01:21:34;;;;;;;;;;;6.00;99.90;;;;;;5109291;28;1159;-68
2023/04/08 01:24:00;;;;;;;;;;;5.50;99.90;;;;;;5107918;28;1120;-68
2023/04/08 01:26:26;;;;;;;;;;;5.70;99.90;;;;;;5108991;28;1147;-68
2023/04/08 01:28:53;;;;;;;;;;;5.60;99.90;;;;;;5108885;28;1909;-68
2023/04/08 01:31:20;;;;;;;;;;;5.50;99.90;;;;;;5107964;28;1092;-68
2023/04/08 01:33:46;;;;;;;;;;;5.80;99.90;;;;;;5090717;28;1126;-68
2023/04/08 01:36:13;;;;;;;;;;;5.50;99.90;;;;;;5109068;28;1147;-68
2023/04/08 01:38:39;;;;;;;;;;;5.80;99.90;;;;;;5090417;28;1084;-68
2023/04/08 01:41:07;;;;;;;;;;;6.00;99.90;;;;;;5108261;28;1026;-68
2023/04/08 01:43:33;;;;;;;;;;;5.70;99.90;;;;;;5109452;28;1114;-68
2023/04/08 01:45:59;;;;;;;;;;;5.80;99.90;;;;;;5090158;28;1125;-68
2023/04/08 01:48:25;;;;;;;;;;;5.80;99.90;;;;;;5110028;28;1937;-68
2023/04/08 01:50:52;;;;;;;;;;;6.10;99.90;;;;;;5101807;27;1239;-68
2023/04/08 01:53:18;;;;;;;;;;;6.10;99.90;;;;;;5102081;28;1305;-68
2023/04/08 01:55:44;;;;;;;;;;;5.90;99.90;;;;;;5111852;28;1282;-68
2023/04/08 01:58:15;;;;;;;;;;;6.20;99.90;;;;;;5102592;28;1206;-68
2023/04/08 02:00:42;;;;;;;;;;;6.00;99.90;;;;;;5098618;28;1163;-68
2023/04/08 02:03:10;;;;;;;;;;;6.10;99.90;;;;;;5093609;28;1147;-67
2023/04/08 02:05:36;;;;;;;;;;;6.10;99.90;;;;;;5112471;28;1000;-68
2023/04/08 02:08:02;;;;;;;;;;;6.20;99.90;;;;;;5110945;28;1283;-68
2023/04/08 02:10:28;;;;;;;;;;;6.00;99.90;;;;;;5099239;28;1905;-68
2023/04/08 02:12:54;;;;;;;;;;;6.30;99.90;;;;;;5102875;28;1196;-68
2023/04/08 02:15:20;;;;;;;;;;;6.20;99.90;;;;;;5099953;28;1148;-68
2023/04/08 02:17:49;;;;;;;;;;;6.30;99.90;;;;;;5101637;28;1203;-68
2023/04/08 02:20:22;;;;;;;;;;;6.20;99.90;;;;;;5097235;28;1263;-68
2023/04/08 02:22:58;;;;;;;;;;;6.40;99.90;;;;;;5111149;28;1172;-68
2023/04/08 02:25:24;;;;;;;;;;;6.40;99.90;;;;;;5099733;28;1117;-68
2023/04/08 02:27:51;;;;;;;;;;;6.30;99.90;;;;;;5101225;28;1242;-68
2023/04/08 02:30:18;;;;;;;;;;;6.20;99.90;;;;;;5112181;27;1976;-68
2023/04/08 02:32:46;;;;;;;;;;;6.50;99.90;;;;;;5111243;28;1236;-68
2023/04/08 02:35:13;;;;;;;;;;;6.20;99.90;;;;;;5126880;27;1166;-68
2023/04/08 02:37:38;;;;;;;;;;;6.30;99.90;;;;;;5111828;28;1175;-68
2023/04/08 02:40:20;;;;;;;;;;;6.30;99.90;;;;;;5111192;28;1265;-68
2023/04/08 02:42:46;;;;;;;;;;;6.40;99.90;;;;;;5110444;28;1179;-68
2023/04/08 02:45:12;;;;;;;;;;;6.10;99.90;;;;;;5111856;28;1058;-68
2023/04/08 02:47:37;;;;;;;;;;;6.20;99.90;;;;;;5111416;28;1164;-68
2023/04/08 02:50:04;;;;;;;;;;;6.10;99.90;;;;;;5092449;28;1972;-68
2023/04/08 02:52:32;;;;;;;;;;;6.20;99.90;;;;;;5106187;28;1157;-68
2023/04/08 02:54:58;;;;;;;;;;;6.10;99.90;;;;;;5093028;28;1096;-68
2023/04/08 02:57:23;;;;;;;;;;;6.00;99.90;;;;;;5110706;28;1167;-68
2023/04/08 02:59:49;;;;;;;;;;;5.90;99.90;;;;;;5095112;28;1262;-68
2023/04/08 03:02:15;;;;;;;;;;;5.90;99.90;;;;;;5114347;27;1095;-68
2023/04/08 03:04:40;;;;;;;;;;;5.80;99.90;;;;;;5110361;28;1144;-68
2023/04/08 03:07:06;;;;;;;;;;;6.10;99.90;;;;;;5110752;28;1124;-68
2023/04/08 03:09:31;;;;;;;;;;;6.00;99.90;;;;;;5097494;28;1965;-68
2023/04/08 03:11:57;;;;;;;;;;;6.00;99.90;;;;;;5092515;27;1092;-68
2023/04/08 03:14:23;;;;;;;;;;;5.90;99.90;;;;;;5113082;27;1167;-68
2023/04/08 03:16:48;;;;;;;;;;;6.10;99.90;;;;;;5111142;27;1167;-68
2023/04/08 03:19:14;;;;;;;;;;;5.70;99.90;;;;;;5110605;28;1171;-68
2023/04/08 03:21:40;;;;;;;;;;;5.80;99.90;;;;;;5111131;28;1065;-68
2023/04/08 03:24:05;;;;;;;;;;;5.60;99.90;;;;;;5110291;28;1176;-68
2023/04/08 03:26:31;;;;;;;;;;;5.40;99.90;;;;;;5109572;28;1104;-68
2023/04/08 03:28:57;;;;;;;;;;;5.30;99.90;;;;;;5092694;28;1913;-68
2023/04/08 03:31:22;;;;;;;;;;;5.30;99.90;;;;;;5110195;28;1120;-68
2023/04/08 03:33:48;;;;;;;;;;;5.30;99.90;;;;;;5110456;28;1136;-68
2023/04/08 03:36:14;;;;;;;;;;;5.20;99.90;;;;;;5109433;28;1129;-68
2023/04/08 03:38:39;;;;;;;;;;;5.00;99.90;;;;;;5109916;28;1132;-68
2023/04/08 03:41:05;;;;;;;;;;;4.90;99.90;;;;;;5110085;28;1100;-68
2023/04/08 03:43:31;;;;;;;;;;;5.30;99.90;;;;;;5110085;28;1108;-68
2023/04/08 03:45:57;;;;;;;;;;;;;;;;;;5109589;28;1095;-68
2023/04/08 03:48:23;;;;;;;;;;;4.70;99.90;;;;;;5091803;28;1969;-67
2023/04/08 03:50:49;;;;;;;;;;;4.70;99.90;;;;;;5091980;28;1116;-67
2023/04/08 03:53:14;;;;;;;;;;;4.70;99.90;;;;;;5109124;28;1186;-67
2023/04/08 03:55:40;;;;;;;;;;;4.70;99.90;;;;;;5109748;28;1207;-68
2023/04/08 03:58:06;;;;;;;;;;;4.60;99.90;;;;;;5091830;28;1081;-68
2023/04/08 04:00:31;;;;;;;;;;;4.50;99.90;;;;;;5109573;28;1164;-68
2023/04/08 04:02:57;;;;;;;;;;;4.50;99.90;;;;;;5108891;28;1112;-68
2023/04/08 04:05:23;;;;;;;;;;;4.50;99.90;;;;;;5109757;28;1107;-67
2023/04/08 04:07:48;;;;;;;;;;;4.60;99.90;;;;;;5109234;28;1271;-67
2023/04/08 04:10:14;;;;;;;;;;;4.70;99.90;;;;;;5108778;28;1989;-67
2023/04/08 04:12:40;;;;;;;;;;;4.70;99.90;;;;;;5115959;27;1096;-67
2023/04/08 04:15:06;;;;;;;;;;;4.70;99.90;;;;;;5111327;27;1116;-67
2023/04/08 04:17:31;;;;;;;;;;;4.70;99.90;;;;;;5130160;27;1095;-67
2023/04/08 04:19:57;;;;;;;;;;;4.80;99.90;;;;;;5118111;27;1095;-67
2023/04/08 04:22:23;;;;;;;;;;;4.90;99.90;;;;;;5110015;28;1108;-67
2023/04/08 04:24:48;;;;;;;;;;;5.00;99.90;;;;;;5091133;28;1327;-68
2023/04/08 04:27:16;;;;;;;;;;;5.10;99.90;;;;;;5109181;28;1018;-67
2023/04/08 04:29:42;;;;;;;;;;;5.20;99.90;;;;;;5109266;28;1965;-67
2023/04/08 04:32:08;;;;;;;;;;;5.20;99.90;;;;;;5109544;28;1242;-68
2023/04/08 04:34:33;;;;;;;;;;;5.30;99.90;;;;;;5108998;28;1155;-68
2023/04/08 04:36:59;;;;;;;;;;;5.40;99.90;;;;;;5109251;28;1194;-67
2023/04/08 04:39:25;;;;;;;;;;;5.50;99.90;;;;;;5109312;28;1203;-67
2023/04/08 04:41:50;;;;;;;;;;;5.60;99.90;;;;;;5108943;28;1200;-68
2023/04/08 04:44:16;;;;;;;;;;;5.70;99.90;;;;;;5109664;28;1092;-68
2023/04/08 04:46:42;;;;;;;;;;;5.80;99.90;;;;;;5108797;28;1090;-67
2023/04/08 04:49:07;;;;;;;;;;;5.90;99.90;;;;;;5108904;28;1934;-67
2023/04/08 04:51:33;;;;;;;;;;;5.90;99.90;;;;;;5109366;28;1127;-67
2023/04/08 04:53:59;;;;;;;;;;;6.00;99.90;;;;;;5090848;28;1160;-67
2023/04/08 04:56:26;;;;;;;;;;;6.00;99.90;;;;;;5094710;28;1163;-67
2023/04/08 04:58:51;;;;;;;;;;;6.10;99.90;;;;;;5109722;28;1096;-67
2023/04/08 05:01:17;;;;;;;;;;;6.10;99.90;;;;;;5108913;28;1124;-67
2023/04/08 05:03:43;;;;;;;;;;;6.20;99.90;;;;;;5114053;28;1194;-67
2023/04/08 05:06:08;;;;;;;;;;;6.20;99.90;;;;;;5109410;28;1148;-67
2023/04/08 05:08:34;;;;;;;;;;;6.30;99.90;;;;;;5108700;28;1914;-67
2023/04/08 05:11:01;;;;;;;;;;;6.30;99.90;;;;;;5108761;28;1073;-67
2023/04/08 05:13:27;;;;;;;;;;;6.30;99.90;;;;;;5108559;28;1192;-67
2023/04/08 05:15:52;;;;;;;;;;;6.30;99.90;;;;;;5129063;28;1130;-68
2023/04/08 05:18:18;;;;;;;;;;;6.30;99.90;;;;;;5128829;28;1111;-68
2023/04/08 05:20:44;;;;;;;;;;;6.30;99.90;;;;;;5128043;28;1214;-67
2023/04/08 05:23:10;;;;;;;;;;;6.40;99.90;;;;;;5108291;28;1195;-67
2023/04/08 05:25:36;;;;;;;;;;;6.40;99.90;;;;;;5128413;27;1108;-68
2023/04/08 05:28:02;;;;;;;;;;;6.50;99.90;;;;;;5113080;28;1179;-68
2023/04/08 05:30:28;;;;;;;;;;;6.60;99.90;;;;;;5134903;27;1910;-68
2023/04/08 05:32:53;;;;;;;;;;;6.60;99.90;;;;;;5115019;27;1227;-68
2023/04/08 05:35:19;;;;;;;;;;;6.60;99.90;;;;;;5113356;27;1123;-68
2023/04/08 05:37:45;;;;;;;;;;;6.70;99.90;;;;;;5113559;27;1207;-68
2023/04/08 05:40:10;;;;;;;;;;;6.70;99.90;;;;;;5111151;28;1226;-68
2023/04/08 05:42:36;;;;;;;;;;;6.80;99.90;;;;;;5112410;28;1200;-68
2023/04/08 05:45:02;;;;;;;;;;;6.80;99.90;;;;;;5112842;27;1056;-68
2023/04/08 05:47:28;;;;;;;;;;;6.80;99.90;;;;;;5113523;27;1306;-68
2023/04/08 05:49:53;;;;;;;;;;;6.90;99.90;;;;;;5114476;27;1969;-68
2023/04/08 05:52:19;;;;;;;;;;;7.00;99.90;;;;;;5111928;28;1167;-68
2023/04/08 05:54:45;;;;;;;;;;;7.00;99.90;;;;;;5111485;28;1092;-68
2023/04/08 05:57:11;;;;;;;;;;;7.10;99.90;;;;;;5109574;27;1088;-68
2023/04/08 05:59:36;;;;;;;;;;;7.10;99.90;;;;;;5112036;27;1115;-68
2023/04/08 06:02:02;;;;;;;;;;;7.20;99.90;;;;;;5116133;27;1270;-68
2023/04/08 06:04:28;;;;;;;;;;;7.30;99.90;;;;;;5112306;28;1186;-68
2023/04/08 06:06:58;;;;;;;;;;;7.20;99.90;;;;;;5110705;28;1227;-68
2023/04/08 06:09:24;;;;;;;;;;;7.30;99.90;;;;;;5111651;28;1890;-68
2023/04/08 06:11:50;;;;;;;;;;;7.20;99.90;;;;;;5112210;28;1112;-68
2023/04/08 06:14:16;;;;;;;;;;;7.20;99.90;;;;;;5097514;28;1109;-68
2023/04/08 06:16:41;;;;;;;;;;;7.20;99.90;;;;;;5112109;28;1092;-68
2023/04/08 06:19:07;;;;;;;;;;;7.20;99.90;;;;;;5111641;28;1278;-68
2023/04/08 06:21:33;;;;;;;;;;;7.20;99.90;;;;;;5111914;27;1132;-68
2023/04/08 06:23:58;;;;;;;;;;;7.20;99.90;;;;;;5110078;28;1181;-68
2023/04/08 06:26:25;;;;;;;;;;;7.30;99.90;;;;;;5111528;28;1143;-68
2023/04/08 06:28:51;;;;;;;;;;;7.40;99.90;;;;;;5098445;28;1913;-68
2023/04/08 06:31:16;;;;;;;;;;;7.40;99.90;;;;;;5111712;28;1108;-68
2023/04/08 06:33:42;;;;;;;;;;;7.50;99.90;;;;;;5110497;28;1122;-68
2023/04/08 06:36:08;;;;;;;;;;;7.50;99.90;;;;;;5111543;27;1304;-68
2023/04/08 06:38:34;;;;;;;;;;;7.50;99.90;;;;;;5101089;28;1260;-68
2023/04/08 06:41:06;;;;;;;;;;;7.50;99.90;;;;;;5112663;27;1239;-68
2023/04/08 06:43:32;;;;;;;;;;;7.60;99.90;;;;;;5104102;28;1210;-68
2023/04/08 06:45:58;;;;;;;;;;;7.60;99.90;;;;;;5126773;27;1067;-68
2023/04/08 06:48:30;;;;;;;;;;;7.60;99.90;;;;;;5131630;27;1902;-68
2023/04/08 06:50:56;;;;;;;;;;;7.70;99.90;;;;;;5116023;27;1071;-68
2023/04/08 06:53:23;;;;;;;;;;;7.70;99.90;;;;;;5111260;27;1024;-68
2023/04/08 06:55:49;;;;;;;;;;;7.60;99.90;;;;;;5110582;28;1088;-68
2023/04/08 06:58:15;;;;;;;;;;;7.60;99.90;;;;;;5092398;28;1164;-68
2023/04/08 07:00:41;;;;;;;;;;;7.60;99.90;;;;;;5110792;28;1143;-68
2023/04/08 07:03:07;;;;;;;;;;;7.60;99.90;;;;;;5118651;27;1085;-68
2023/04/08 07:05:41;;;;;;;;;;;7.70;99.90;;;;;;5131767;27;1103;-68
2023/04/08 07:08:07;;;;;;;;;;;7.70;99.90;;;;;;5117385;27;1251;-69
2023/04/08 07:10:34;;;;;;;;;;;7.80;99.90;;;;;;5110466;28;1968;-68
2023/04/08 07:13:00;;;;;;;;;;;7.90;99.90;;;;;;5120651;27;1113;-68
2023/04/08 07:15:25;;;;;;;;;;;8.00;99.90;;;;;;5113041;27;1109;-68
2023/04/08 07:17:51;;;;;;;;;;;8.00;99.90;;;;;;5111377;27;1190;-68
2023/04/08 07:20:17;;;;;;;;;;;8.00;99.90;;;;;;5110844;28;1096;-68
2023/04/08 07:22:42;;;;;;;;;;;7.90;99.90;;;;;;5109974;28;1185;-68
2023/04/08 07:25:08;;;;;;;;;;;7.90;99.90;;;;;;5110348;28;1205;-68
2023/04/08 07:27:34;;;;;;;;;;;7.90;99.90;;;;;;5111005;28;1084;-68
2023/04/08 07:30:00;;;;;;;;;;;7.90;99.90;;;;;;5109782;28;1918;-68
2023/04/08 07:32:26;;;;;;;;;;;7.90;99.90;;;;;;5126484;27;1119;-68
2023/04/08 07:34:52;;;;;;;;;;;8.00;99.90;;;;;;5102578;27;1104;-68
2023/04/08 07:37:17;;;;;;;;;;;8.00;99.90;;;;;;5130424;27;1112;-68
2023/04/08 07:39:43;;;;;;;;;;;8.10;99.90;;;;;;5131028;27;1167;-68
2023/04/08 07:42:09;;;;;;;;;;;8.20;99.90;;;;;;5112858;27;1736;-68
2023/04/08 07:44:35;;;;;;;;;;;8.30;99.90;;;;;;5108980;28;1176;-68
2023/04/08 07:47:00;;;;;;;;;;;8.40;99.90;;;;;;5130207;27;1739;-68
2023/04/08 07:49:26;;;;;;;;;;;8.40;99.90;;;;;;5101297;28;1905;-68
2023/04/08 07:51:52;;;;;;;;;;;8.50;99.90;;;;;;5109065;28;1297;-68
2023/04/08 07:54:18;;;;;;;;;;;8.60;99.90;;;;;;5110123;28;1207;-68
2023/04/08 07:56:43;;;;;;;;;;;8.60;99.90;;;;;;5111909;27;1254;-68
2023/04/08 07:59:10;;;;;;;;;;;8.70;99.90;;;;;;5110787;27;1227;-68
2023/04/08 08:01:35;;;;;;;;;;;8.80;99.90;;;;;;5107570;28;1368;-68
2023/04/08 08:04:01;;;;;;;;;;;8.80;99.90;;;;;;5110859;27;1281;-68
2023/04/08 08:06:27;;;;;;;;;;;8.80;99.90;;;;;;5108734;28;1183;-69
2023/04/08 08:08:53;;;;;;;;;;;8.90;99.90;;;;;;5108956;28;1988;-68
2023/04/08 08:11:20;;;;;;;;;;;8.90;99.90;;;;;;5109945;28;1140;-68
2023/04/08 08:13:45;;;;;;;;;;;8.90;99.90;;;;;;5124617;27;1131;-68
2023/04/08 08:16:11;;;;;;;;;;;8.90;99.90;;;;;;5109583;28;1124;-68
2023/04/08 08:18:38;;;;;;;;;;;9.10;99.90;;;;;;5109075;28;1136;-68
2023/04/08 08:21:04;;;;;;;;;;;9.10;99.90;;;;;;5109773;28;1225;-68
2023/04/08 08:23:30;;;;;;;;;;;9.20;99.90;;;;;;5101446;27;2059;-68
2023/04/08 08:26:00;;;;;;;;;;;9.30;99.90;;;;;;5099074;28;1191;-68
2023/04/08 08:28:26;;;;;;;;;;;9.40;99.90;;;;;;5108794;28;1910;-68
2023/04/08 08:30:52;;;;;;;;;;;9.50;99.90;;;;;;5110122;28;1226;-68
2023/04/08 08:33:18;;;;;;;;;;;9.50;99.90;;;;;;5111834;27;1262;-68
2023/04/08 08:35:44;;;;;;;;;;;9.50;99.90;;;;;;5122405;27;1215;-68
2023/04/08 08:38:11;;;;;;;;;;;9.50;99.90;;;;;;5105843;28;1124;-68
2023/04/08 08:40:37;;;;;;;;;;;9.50;99.90;;;;;;5108640;28;1031;-68
2023/04/08 08:43:02;;;;;;;;;;;9.60;99.90;;;;;;5112292;28;1187;-68
2023/04/08 08:45:28;;;;;;;;;;;9.60;99.90;;;;;;5117929;27;1137;-69
2023/04/08 08:47:55;;;;;;;;;;;9.60;99.90;;;;;;5108480;28;1105;-68
2023/04/08 08:50:20;;;;;;;;;;;9.70;99.90;;;;;;5109191;28;1902;-68
2023/04/08 08:52:50;;;;;;;;;;;9.70;99.90;;;;;;5109399;28;1211;-69
2023/04/08 08:55:17;;;;;;;;;;;9.80;99.90;;;;;;5108498;28;1189;-69
2023/04/08 08:57:44;;;;;;;;;;;9.90;99.90;;;;;;5090583;28;1172;-69
2023/04/08 09:00:10;;;;;;;;;;;10.00;99.90;;;;;;5093894;28;1101;-68
2023/04/08 09:02:35;;;;;;;;;;;10.10;99.90;;;;;;5109852;28;1125;-69
2023/04/08 09:05:02;;;;;;;;;;;10.00;99.90;;;;;;5112633;28;1304;-68
2023/04/08 09:07:29;;;;;;;;;;;10.10;99.90;;;;;;5122906;27;1212;-69
2023/04/08 09:09:55;;;;;;;;;;;10.10;99.90;;;;;;5112735;28;1975;-69
2023/04/08 09:12:22;;;;;;;;;;;10.20;99.90;;;;;;5116688;27;1195;-69
2023/04/08 09:14:47;;;;;;;;;;;10.20;99.90;;;;;;5133839;27;1178;-69
2023/04/08 09:17:13;;;;;;;;;;;10.30;99.90;;;;;;5114961;27;1116;-68
2023/04/08 09:19:39;;;;;;;;;;;10.40;99.90;;;;;;5112342;28;1085;-69
2023/04/08 09:22:07;;;;;;;;;;;10.60;99.90;;;;;;5095204;28;1128;-69
2023/04/08 09:24:33;;;;;;;;;;;10.80;99.90;;;;;;5112488;28;1100;-69
2023/04/08 09:26:59;;;;;;;;;;;11.00;99.90;;;;;;5093029;28;3614;-69
2023/04/08 09:29:26;;;;;;;;;;;11.20;99.90;;;;;;5102553;28;3549;-69
2023/04/08 09:31:53;;;;;;;;;;;11.40;99.90;;;;;;5127575;27;3750;-69
2023/04/08 09:34:20;;;;;;;;;;;11.60;99.90;;;;;;5094730;28;1069;-69
2023/04/08 09:36:47;;;;;;;;;;;11.60;99.90;;;;;;5111061;28;1112;-69
2023/04/08 09:39:13;;;;;;;;;;;11.50;99.90;;;;;;5112064;28;1310;-69
2023/04/08 09:41:39;;;;;;;;;;;11.50;99.90;;;;;;5112618;28;1135;-69
2023/04/08 09:44:06;;;;;;;;;;;11.40;99.90;;;;;;5111461;28;3626;-69
2023/04/08 09:46:44;;;;;;;;;;;11.30;99.90;;;;;;5111345;28;1843;-69
2023/04/08 09:49:12;;;;;;;;;;;11.20;99.90;;;;;;5112544;28;1906;-69
2023/04/08 09:51:41;;;;;;;;;;;11.10;99.90;;;;;;5111557;28;1208;-69
2023/04/08 09:54:11;;;;;;;;;;;10.90;99.90;;;;;;5111371;28;1194;-69
2023/04/08 09:56:40;;;;;;;;;;;10.80;99.90;;;;;;5111719;28;1133;-69
2023/04/08 09:59:11;;;;;;;;;;;10.70;99.90;;;;;;5111690;28;1088;-69
2023/04/08 10:01:38;;;;;;;;;;;10.70;99.90;;;;;;5112138;28;1199;-69
2023/04/08 10:04:08;;;;;;;;;;;10.60;99.90;;;;;;5113853;27;1050;-69
2023/04/08 10:06:34;;;;;;;;;;;10.60;99.90;;;;;;5111095;28;1261;-69
2023/04/08 10:09:00;;;;;;;;;;;10.50;99.90;;;;;;5108286;28;1926;-69
2023/04/08 10:11:26;;;;;;;;;;;10.60;99.90;;;;;;5110145;28;1156;-69
2023/04/08 10:13:52;;;;;;;;;;;10.60;99.90;;;;;;5108156;28;1017;-69
2023/04/08 10:16:20;;;;;;;;;;;10.70;99.90;;;;;;5107724;28;1595;-69
2023/04/08 10:18:48;;;;;;;;;;;10.80;99.90;;;;;;5111276;28;1167;-69
2023/04/08 10:21:30;;;;;;;;;;;10.80;99.90;;;;;;5096825;28;1356;-69
2023/04/08 10:23:58;;;;;;;;;;;10.90;99.90;;;;;;5111634;28;1056;-69
2023/04/08 10:26:33;;;;;;;;;;;10.90;99.90;;;;;;5111044;28;1063;-69
2023/04/08 10:29:17;;;;;;;;;;;10.90;99.90;;;;;;5111867;28;1926;-69
2023/04/08 10:31:43;;;;;;;;;;;10.80;99.90;;;;;;5110995;28;1228;-69
2023/04/08 10:34:14;;;;;;;;;;;10.80;99.90;;;;;;5110778;28;1108;-69
2023/04/08 10:36:40;;;;;;;;;;;10.80;99.90;;;;;;5111813;28;961;-69
2023/04/08 10:39:06;;;;;;;;;;;10.90;99.90;;;;;;5101570;28;1084;-69
2023/04/08 10:41:31;;;;;;;;;;;10.90;99.90;;;;;;5092422;28;1159;-69
2023/04/08 10:43:57;;;;;;;;;;;10.90;99.90;;;;;;5111140;28;1266;-69
2023/04/08 10:46:26;;;;;;;;;;;10.90;99.90;;;;;;5111528;27;1290;-69
2023/04/08 10:49:00;;;;;;;;;;;10.90;99.90;;;;;;5132943;27;1914;-69
2023/04/08 10:51:30;;;;;;;;;;;10.90;99.90;;;;;;5120349;27;1112;-69
2023/04/08 10:54:04;;;;;;;;;;;10.80;99.90;;;;;;5110395;28;1246;-69
2023/04/08 10:56:29;;;;;;;;;;;10.80;99.90;;;;;;5109066;28;1188;-69
2023/04/08 10:58:55;;;;;;;;;;;10.80;99.90;;;;;;5110631;28;1145;-69
2023/04/08 11:01:21;;;;;;;;;;;10.90;99.90;;;;;;5110697;28;1104;-69
2023/04/08 11:03:47;;;;;;;;;;;10.90;99.90;;;;;;5124281;27;1441;-69
2023/04/08 11:06:13;;;;;;;;;;;11.00;99.90;;;;;;5106430;28;1322;-69
2023/04/08 11:08:39;;;;;;;;;;;11.10;99.90;;;;;;5110917;28;1991;-69
2023/04/08 11:11:07;;;;;;;;;;;11.10;99.90;;;;;;5111991;27;1285;-69
2023/04/08 11:13:35;;;;;;;;;;;11.20;99.90;;;;;;5122909;27;1142;-69
2023/04/08 11:16:03;;;;;;;;;;;11.20;99.90;;;;;;5109601;28;1020;-69
2023/04/08 11:18:30;;;;;;;;;;;11.30;99.90;;;;;;5110365;28;1100;-69
2023/04/08 11:20:56;;;;;;;;;;;11.40;99.90;;;;;;5112905;27;1230;-69
2023/04/08 11:23:23;;;;;;;;;;;11.40;99.90;;;;;;5112927;27;1238;-69
2023/04/08 11:25:49;;;;;;;;;;;11.50;99.90;;;;;;5109450;28;1137;-69
2023/04/08 11:28:16;;;;;;;;;;;11.50;99.90;;;;;;5112053;27;1265;-69
2023/04/08 11:30:42;;;;;;;;;;;11.50;99.90;;;;;;5109814;28;1963;-69
2023/04/08 11:33:09;;;;;;;;;;;11.60;99.90;;;;;;5109983;27;1249;-69
2023/04/08 11:35:39;;;;;;;;;;;11.70;99.90;;;;;;5110628;28;1191;-69
2023/04/08 11:38:04;;;;;;;;;;;11.70;99.90;;;;;;5109716;28;1107;-69
2023/04/08 11:40:30;;;;;;;;;;;11.70;99.90;;;;;;5111543;27;1203;-69
2023/04/08 11:42:56;;;;;;;;;;;11.70;99.90;;;;;;5128485;27;1348;-69
2023/04/08 11:45:22;;;;;;;;;;;11.70;99.90;;;;;;5112311;27;1218;-69
2023/04/08 11:47:47;;;;;;;;;;;11.80;99.90;;;;;;5112806;27;1184;-69
2023/04/08 11:50:23;;;;;;;;;;;11.80;99.90;;;;;;5091072;28;1965;-69
2023/04/08 11:52:49;;;;;;;;;;;11.90;99.90;;;;;;5092582;28;1124;-69
2023/04/08 11:55:23;;;;;;;;;;;11.90;99.90;;;;;;5109965;28;1088;-69
2023/04/08 11:57:50;;;;;;;;;;;12.10;99.90;;;;;;5109360;28;1087;-69
2023/04/08 12:00:16;;;;;;;;;;;12.00;99.90;;;;;;5109118;28;1130;-69
2023/04/08 12:02:42;;;;;;;;;;;12.30;99.90;;;;;;5114394;27;1096;-69
2023/04/08 12:05:08;;;;;;;;;;;11.70;99.90;;;;;;5129735;27;1271;-69
2023/04/08 12:07:33;;;;;;;;;;;12.00;99.90;;;;;;5121789;27;1377;-69
2023/04/08 12:10:00;;;;;;;;;;;12.70;99.90;;;;;;5101891;28;3586;-69
2023/04/08 12:12:25;;;;;;;;;;;12.30;99.90;;;;;;5109133;28;1100;-69
2023/04/08 12:14:52;;;;;;;;;;;12.40;99.90;;;;;;5101794;28;3593;-69
2023/04/08 12:17:17;;;;;;;;;;;12.60;99.90;;;;;;5108475;28;1290;-69
2023/04/08 12:19:43;;;;;;;;;;;12.70;99.90;;;;;;5108492;28;1120;-69
2023/04/08 12:22:09;;;;;;;;;;;12.80;99.90;;;;;;5110568;27;1199;-69
2023/04/08 12:24:34;;;;;;;;;;;12.90;99.90;;;;;;5103581;28;1202;-69
2023/04/08 12:27:02;;;;;;;;;;;13.00;99.90;;;;;;5108751;28;1357;-69
2023/04/08 12:29:28;;;;;;;;;;;13.10;99.90;;;;;;5109885;28;1902;-69
2023/04/08 12:31:53;;;;;;;;;;;13.20;99.90;;;;;;5109635;28;1081;-69
2023/04/08 12:34:19;;;;;;;;;;;13.30;99.90;;;;;;5107757;28;1048;-69
2023/04/08 12:36:46;;;;;;;;;;;13.60;99.90;;;;;;5113926;27;1087;-69
2023/04/08 12:39:11;;;;;;;;;;;13.90;99.90;;;;;;5110720;27;1835;-69
2023/04/08 12:41:37;;;;;;;;;;;14.20;99.90;;;;;;5129853;27;1116;-69
2023/04/08 12:44:03;;;;;;;;;;;14.30;99.90;;;;;;5113291;27;1107;-69
2023/04/08 12:46:29;;;;;;;;;;;14.50;99.90;;;;;;5106830;28;1101;-69
2023/04/08 12:48:54;;;;;;;;;;;14.70;99.90;;;;;;5108940;28;1914;-69
2023/04/08 12:51:20;;;;;;;;;;;14.90;99.90;;;;;;5109218;28;1175;-69
2023/04/08 12:53:46;;;;;;;;;;;15.10;99.90;;;;;;5108369;28;1118;-69
2023/04/08 12:56:12;;;;;;;;;;;15.10;99.90;;;;;;5109176;28;1112;-69
2023/04/08 12:58:37;;;;;;;;;;;15.00;99.90;;;;;;5109746;28;1080;-69
2023/04/08 13:01:03;;;;;;;;;;;15.80;99.90;;;;;;5108191;28;1120;-69
2023/04/08 13:03:30;;;;;;;;;;;15.00;99.90;;;;;;5120264;28;1218;-69
2023/04/08 13:05:57;;;;;;;;;;;15.00;99.90;;;;;;5129865;28;1076;-69
2023/04/08 13:08:23;;;;;;;;;;;15.00;99.90;;;;;;5113303;28;1662;-69
2023/04/08 13:10:49;;;;;;;;;;;15.10;99.90;;;;;;5106638;28;1910;-69
2023/04/08 13:13:15;;;;;;;;;;;14.90;99.90;;;;;;5090916;28;1145;-69
2023/04/08 13:15:42;;;;;;;;;;;15.20;99.90;;;;;;5108544;28;1183;-69
2023/04/08 13:18:08;;;;;;;;;;;15.30;99.90;;;;;;5108866;28;1116;-69
2023/04/08 13:20:34;;;;;;;;;;;15.70;99.90;;;;;;5102406;28;1160;-69
2023/04/08 13:23:00;;;;;;;;;;;15.90;99.90;;;;;;5108807;28;1195;-69
2023/04/08 13:25:25;;;;;;;;;;;16.10;99.90;;;;;;5074196;28;1169;-69
2023/04/08 13:27:51;;;;;;;;;;;;;;;;;;5108792;28;1085;-69
2023/04/08 13:30:20;;;;;;;;;;;;;;;;;;5108403;28;1906;-69
2023/04/08 13:32:45;;;;;;;;;;;16.30;99.90;;;;;;5108922;28;969;-69
2023/04/08 13:35:11;;;;;;;;;;;16.50;99.90;;;;;;5109211;28;1120;-69
2023/04/08 13:37:37;;;;;;;;;;;16.50;99.90;;;;;;5096654;28;3714;-69
2023/04/08 13:40:03;;;;;;;;;;;16.70;99.90;;;;;;5107156;28;3742;-69
2023/04/08 13:42:30;;;;;;;;;;;16.80;99.90;;;;;;5108169;28;3706;-69
2023/04/08 13:44:56;;;;;;;;;;;16.90;99.90;;;;;;5108034;28;1136;-69
2023/04/08 13:47:22;;;;;;;;;;;17.10;99.90;;;;;;5110563;28;1267;-69
2023/04/08 13:49:48;;;;;;;;;;;17.30;99.60;;;;;;5111892;28;1902;-69
2023/04/08 13:52:13;;;;;;;;;;;17.50;99.40;;;;;;5112541;28;1116;-69
2023/04/08 13:54:39;;;;;;;;;;;17.90;99.00;;;;;;5110734;28;3726;-69
2023/04/08 13:57:05;;;;;;;;;;;18.20;98.00;;;;;;5103510;28;1093;-69
2023/04/08 13:59:31;;;;;;;;;;;18.30;97.70;;;;;;5112366;28;1132;-69
2023/04/08 14:01:56;;;;;;;;;;;18.40;96.10;;;;;;5112052;28;1114;-69
2023/04/08 14:04:22;;;;;;;;;;;18.20;96.20;;;;;;5109775;27;1198;-70
2023/04/08 14:06:51;;;;;;;;;;;18.30;96.80;;;;;;5112491;28;1409;-69
2023/04/08 14:09:18;;;;;;;;;;;18.90;95.60;;;;;;5116927;27;1914;-69
2023/04/08 14:11:44;;;;;;;;;;;19.40;95.00;;;;;;5124098;27;1116;-70
2023/04/08 14:14:10;;;;;;;;;;;20.20;93.70;;;;;;5130975;27;1111;-70
2023/04/08 14:16:35;;;;;;;;;;;21.10;91.80;;;;;;5132301;27;1099;-70
2023/04/08 14:19:02;;;;;;;;;;;22.00;87.80;;;;;;5131165;27;1060;-69
2023/04/08 14:21:27;;;;;;;;;;;22.50;80.50;;;;;;5110609;27;1105;-69
2023/04/08 14:23:53;;;;;;;;;;;22.50;81.00;;;;;;5109837;28;1089;-69
2023/04/08 14:26:19;;;;;;;;;;;22.20;80.70;;;;;;5108192;28;1741;-69
2023/04/08 14:28:46;;;;;;;;;;;21.80;81.70;;;;;;5110172;28;1902;-69
2023/04/08 14:31:12;;;;;;;;;;;21.70;82.90;;;;;;5111232;28;1134;-70
2023/04/08 14:33:38;;;;;;;;;;;22.40;80.20;;;;;;5111172;28;1195;-70